Thursday, October 30, 2014
19:02 UTC
  |  Log In   |  Register Free
Airport Search:

Hillsboro Municipal Airport
(KINJ)

Hillsboro Municipal Airport Diagram
No Airport Diagram Available

FAA data valid effective September 18, 2014 - November 13, 2014 (unless otherwise noted).

 
 
 
 
 
 
 
 
 
 
 
 
 
 

Current Aviation Weather for Hillsboro Municipal Airport (KINJ)

The most recent METAR observation for KINJ was updated at: 1811
METAR Summary (Translated METAR)
KINJ
301755Z AUTO 16006KT 10SM CLR 23/09 A3014 RMK AO2 T02300085 10231 20120
KCPT
301755Z AUTO 16008KT 10SM BKN037 22/12 A3015 RMK AO2
(23.6 nm NW from KINJ)
KJWY
301755Z AUTO 15006KT 10SM CLR 23/10 A3015 RMK AO2 T02280104 10228 20092
(24.4 nm NE from KINJ)
TAF
No TAF information found within 50 nm of KINJ
  Airport Weather Conditions for KINJ

 Current Weather at INJ
73° F
Fair
South winds at 8.1 mph
INJ NOAA Radar

Pressure: 30.15 in
Humidity: 40%
Wind: South at 8.1 MPH (7 KT)
Dew Point: 47.3°F
Visibility: 10.00 mi


Airport Weather Forecast for KINJ

Translated METAR and TAF for KINJ
Translated METAR for KINJ (1857 UTC 30 October 2014)
found at http://aviationweather.gov/adds/metars/
 
METAR text: KINJ 301835Z AUTO 20005KT 10SM CLR 24/09 A3012 RMK AO2 T02400094
Conditions at: KINJ (HILLSBORO , TX, US) observed 1835 UTC 30 October 2014
Temperature: 24.0°C (75°F)
Dewpoint: 9.4°C (49°F) [RH = 40%]
Pressure (altimeter): 30.12 inches Hg (1020.1 mb)
Winds: from the SSW (200 degrees) at 6 MPH (5 knots; 2.6 m/s)
Visibility: 10 or more miles (16+ km)
Ceiling: at least 12,000 feet AGL
Clouds: sky clear below 12,000 feet AGL
Weather: automated observation with no human augmentation;
there may or may not be significant weather present at this time
Translated TAF for KINJ

There is no translated TAF available for this airport

Find All Airport Services Find A Hotel Find A Rental Car Find A Golf Course Find A Restaurant $100 Hamburger



FBO's on the Field
FBO Company Facility Photos Services Transportation Aviation Fuel Prices: Prices include tax
Catering Weather Repair Courtesy Rental Type 100LL JetA JetA+ MOGAS 8087
 
Hillsboro Municipal Airport

This FBO has not yet been rated
FS:Avfuel
Last Updated: Oct-21
Login to update fuel prices
SS:
Contact Hillsboro Municipal AirportMore FBO Information
 
Add another FBO Facility Photos Catering Weather Repair Courtesy Rental Type 100LL JetA JetA+ MOGAS 8087
Services Transportation Aviation Fuel Prices: Prices include tax


model-print
model-print
model-print
model-print